Creston, WA

1:12 PM PST on February 14, 2016 (GMT -0800)
South Wilbur | | Change Station
CLOSE
Current Station
Personal Weather Station
Location: Wilbur, WA
Elevation: 2231 ft
Nearby Weather Stations

Elev 2231 ft 47.70 °N, 118.69 °W | Updated 4 minutes ago

Overcast
Overcast
42.6 °F
Feels Like 40 °F
N
4.7
Wind Variable Wind from SSE

Today
High -- | Low -- °F
--% Chance of Precip.
Yesterday
High -- | Low -- °F
Precip. -- in
Pressure 30.08 in
Visibility 10.0 miles
Clouds Mostly Cloudy 900 ft
Overcast 7000 ft
Windchill 40 °F
Dew Point 41 °F
Humidity 94%
Rainfall 0.00 in
Snow Depth Not available.
7:02 AM 5:14 PM
Waxing Crescent, 45% visible
SPECI KSKA 142108Z AUTO 22008KT 10SM BKN009 OVC070 07/07 A3008 RMK AO2 CIG 009V070 BKN V SCT $
Pressure 30.08 in
Visibility 10.0 miles
Clouds Mostly Cloudy 900 ft
Overcast 7000 ft
Windchill 40 °F
Dew Point 41 °F
Humidity 94%
Rainfall 0.00 in
Snow Depth Not available.
7:02 AM 5:14 PM
Waxing Crescent, 45% visible
SPECI KSKA 142108Z AUTO 22008KT 10SM BKN009 OVC070 07/07 A3008 RMK AO2 CIG 009V070 BKN V SCT $

10-Day Weather Forecast

Almanac

Astronomy

Feb. 14, 2016 Rise Set
Actual Time
Civil Twilight
Nautical Twilight
Astronomical Twilight
Moon
Length of Visible Light
Length of Day
Tomorrow will be .
, % of the Moon is Illuminated

Today's Extremes

State Highs State Lows

Community

WunderPhotos

Upload Photos

1,892,886 photos uploaded!

WunderBlog® & News

Nearby

Air Quality

  Air Quality AQ Index Pollutant
Not available.

Snow Depth

Station Depth Elevation

Earthquake Activity

City Distance Mag. Time & Date
Minimum magnitude displayed is 2.5.

Coastal Water Temperatures

Place Temperature

Stations

Nearby Weather Stations

Station Location Temp. Windchill Dew Point Humidity Wind Precip. Elev Updated Type
                   

Watches & Warnings

There are currently no watches in effect.